FAHS/HDS METAR and TAF weather

Enter ICAO airport designator
Station Type Date Time Source
FAHS METAR 2019/02/21 15:00 UTC NOAA

FAHS 211500Z AUTO 16009KT //// // ////// 30/20 Q1017


Station Type Date Time Source
FAHS Decoded METAR 2019/02/21 15:00 UTC NOAA

Hoedspruit, South Africa (FAHS) 24-22S 031-02E 500M
Feb 21, 2019 - 10:00 AM EST / 2019.02.21 1500 UTC
Wind: from the SSE (160 degrees) at 10 MPH (9 KT):0
Temperature: 86 F (30 C)
Dew Point: 68 F (20 C)
Relative Humidity: 55%
Pressure (altimeter): 30.03 in. Hg (1017 hPa)
ob: FAHS 211500Z AUTO 16009KT //// // ////// 30/20 Q1017
cycle: 15

Station Type Date Time Source
FAHS TAF 2017/05/23 04:01 UTC NOAA

TAF FAHS 230300Z 2304/2315 VRB02KT CAVOK TX29/2312ZTN12/2304Z


Example: see airport list